createdAt,value
2018-04-02T00:00:46.162Z,0.00
2018-04-02T00:01:46.339Z,0.00
2018-04-02T00:02:46.515Z,0.00
2018-04-02T00:03:46.696Z,0.00
2018-04-02T00:04:46.878Z,0.00
2018-04-02T00:05:47.054Z,0.00
2018-04-02T00:06:47.231Z,0.00
2018-04-02T00:07:47.416Z,0.00
2018-04-02T00:08:47.588Z,0.00
2018-04-02T00:09:47.759Z,0.00
2018-04-02T00:10:47.938Z,0.00
2018-04-02T00:11:48.114Z,0.00
2018-04-02T00:12:48.293Z,0.00
2018-04-02T00:13:48.466Z,0.00
2018-04-02T00:14:48.638Z,0.00
2018-04-02T00:15:48.819Z,0.00
2018-04-02T00:16:49.000Z,0.00
2018-04-02T00:17:49.173Z,0.00
2018-04-02T00:18:49.354Z,0.00
2018-04-02T00:19:49.533Z,0.00
2018-04-02T00:20:49.721Z,0.00
2018-04-02T00:21:49.893Z,0.00
2018-04-02T00:22:50.067Z,0.00
2018-04-02T00:23:50.239Z,0.00
2018-04-02T00:24:50.420Z,0.00
2018-04-02T00:25:50.598Z,0.00
2018-04-02T00:26:50.774Z,0.00
2018-04-02T00:27:50.959Z,0.00
2018-04-02T00:28:51.147Z,0.00
2018-04-02T00:29:51.330Z,0.00
2018-04-02T00:30:51.500Z,0.00
2018-04-02T00:31:51.682Z,0.00
2018-04-02T00:32:51.867Z,0.00
2018-04-02T00:33:52.040Z,0.00
2018-04-02T00:34:52.219Z,0.00
2018-04-02T00:35:52.392Z,0.00
2018-04-02T00:36:52.578Z,0.00
2018-04-02T00:37:52.753Z,0.00
2018-04-02T00:38:52.928Z,0.00
2018-04-02T00:39:53.102Z,0.00
2018-04-02T00:40:53.287Z,0.00
2018-04-02T00:41:53.468Z,0.00
2018-04-02T00:42:53.642Z,0.00
2018-04-02T00:43:53.820Z,0.00
2018-04-02T00:44:54.629Z,0.00
2018-04-02T00:45:54.189Z,0.00
2018-04-02T00:46:54.354Z,0.00
2018-04-02T00:47:54.530Z,0.00
2018-04-02T00:48:54.713Z,0.00
2018-04-02T00:49:54.890Z,0.00
2018-04-02T00:50:55.065Z,0.00
2018-04-02T00:51:55.248Z,0.00
2018-04-02T00:52:55.440Z,0.00
2018-04-02T00:53:55.617Z,0.00
2018-04-02T00:54:55.843Z,0.00
2018-04-02T00:55:55.970Z,0.00
2018-04-02T00:56:56.157Z,0.00
2018-04-02T00:57:56.347Z,0.00
2018-04-02T00:58:56.526Z,0.00
2018-04-02T00:59:56.703Z,0.00
2018-04-02T01:00:56.882Z,0.00
2018-04-02T01:01:57.070Z,0.00
2018-04-02T01:02:57.249Z,0.00
2018-04-02T01:03:57.428Z,0.00
2018-04-02T01:04:57.617Z,0.00
2018-04-02T01:05:57.796Z,0.00
2018-04-02T01:06:57.970Z,0.00
2018-04-02T01:07:58.171Z,0.00
2018-04-02T01:08:58.342Z,0.00
2018-04-02T01:09:58.529Z,0.00
2018-04-02T01:10:58.742Z,0.00
2018-04-02T01:11:58.889Z,0.00
2018-04-02T01:12:59.058Z,0.00
2018-04-02T01:13:59.238Z,0.00
2018-04-02T01:14:59.411Z,0.00
2018-04-02T01:15:59.594Z,0.00
2018-04-02T01:16:59.770Z,0.00
2018-04-02T01:17:59.947Z,0.00
2018-04-02T01:19:00.126Z,0.00
2018-04-02T01:20:00.310Z,0.00
2018-04-02T01:21:00.488Z,0.00
2018-04-02T01:22:00.666Z,0.00
2018-04-02T01:23:00.843Z,0.00
2018-04-02T01:24:01.020Z,0.00
2018-04-02T01:25:01.193Z,0.00
2018-04-02T01:26:01.375Z,0.00
2018-04-02T01:27:03.255Z,0.00
2018-04-02T01:28:01.761Z,0.00
2018-04-02T01:29:01.938Z,0.00
2018-04-02T01:30:02.123Z,0.00
2018-04-02T01:31:02.309Z,0.00
2018-04-02T01:32:02.481Z,0.00
2018-04-02T01:33:02.656Z,0.00
2018-04-02T01:34:02.833Z,0.00
2018-04-02T01:35:03.034Z,0.00
2018-04-02T01:36:03.184Z,0.00
2018-04-02T01:37:04.075Z,0.00
2018-04-02T01:38:03.498Z,0.00
2018-04-02T01:39:03.675Z,0.00
2018-04-02T01:40:03.854Z,0.00
2018-04-02T01:41:07.178Z,0.00
2018-04-02T01:42:04.256Z,0.00
2018-04-02T01:43:04.440Z,0.00
2018-04-02T01:44:04.612Z,0.00
2018-04-02T01:45:04.791Z,0.00
2018-04-02T01:46:04.969Z,0.00
2018-04-02T01:47:05.151Z,0.00
2018-04-02T01:48:05.334Z,0.00
2018-04-02T01:49:05.506Z,0.00
2018-04-02T01:50:05.708Z,0.00
2018-04-02T01:51:05.866Z,0.00
2018-04-02T01:52:06.053Z,0.00
2018-04-02T01:53:06.229Z,0.00
2018-04-02T01:54:06.402Z,0.00
2018-04-02T01:55:06.583Z,0.00
2018-04-02T01:56:06.763Z,0.00
2018-04-02T01:57:06.938Z,0.00
2018-04-02T01:58:07.110Z,0.00
2018-04-02T01:59:07.293Z,0.00
2018-04-02T02:00:07.468Z,0.00
2018-04-02T02:01:07.645Z,0.00
2018-04-02T02:02:07.826Z,0.00
2018-04-02T02:03:08.003Z,0.00
2018-04-02T02:04:08.185Z,0.00
2018-04-02T02:05:08.363Z,0.00
2018-04-02T02:06:08.543Z,0.00
2018-04-02T02:07:08.714Z,0.00
2018-04-02T02:08:08.892Z,0.00
2018-04-02T02:09:09.069Z,0.00
2018-04-02T02:10:09.250Z,0.00
2018-04-02T02:11:09.430Z,0.00
2018-04-02T02:12:09.616Z,0.00
2018-04-02T02:13:09.787Z,0.00
2018-04-02T02:14:09.964Z,0.00
2018-04-02T02:15:10.144Z,0.00
2018-04-02T02:16:10.331Z,0.00
2018-04-02T02:17:10.507Z,0.00
2018-04-02T02:18:10.680Z,0.00
2018-04-02T02:19:10.852Z,0.00
2018-04-02T02:20:11.030Z,0.00
2018-04-02T02:21:11.207Z,0.00
2018-04-02T02:22:11.384Z,0.00
2018-04-02T02:23:11.560Z,0.00
2018-04-02T02:24:11.742Z,0.00
2018-04-02T02:25:11.912Z,0.00
2018-04-02T02:26:12.105Z,0.00
2018-04-02T02:27:12.277Z,0.00
2018-04-02T02:28:12.455Z,0.00
2018-04-02T02:29:12.651Z,0.00
2018-04-02T02:30:12.836Z,0.00
2018-04-02T02:31:13.016Z,0.00
2018-04-02T02:32:13.184Z,0.00
2018-04-02T02:33:13.380Z,0.00
2018-04-02T02:34:13.542Z,0.00
2018-04-02T02:35:13.718Z,0.00
2018-04-02T02:36:13.895Z,0.00
2018-04-02T02:37:14.074Z,0.00
2018-04-02T02:38:14.256Z,0.00
2018-04-02T02:39:14.428Z,0.00
2018-04-02T02:40:14.617Z,0.00
2018-04-02T02:41:14.786Z,0.00
2018-04-02T02:42:14.960Z,0.00
2018-04-02T02:43:15.134Z,0.00
2018-04-02T02:44:15.318Z,0.00
2018-04-02T02:45:15.504Z,0.00
2018-04-02T02:46:15.687Z,0.00
2018-04-02T02:47:15.873Z,0.00
2018-04-02T02:48:16.044Z,0.00
2018-04-02T02:49:16.218Z,0.00
2018-04-02T02:50:16.398Z,0.00
2018-04-02T02:51:16.588Z,0.00
2018-04-02T02:52:16.768Z,0.00
2018-04-02T02:53:16.941Z,0.00
2018-04-02T02:54:17.124Z,0.00
2018-04-02T02:55:17.305Z,0.00
2018-04-02T02:56:17.478Z,0.00
2018-04-02T02:57:17.660Z,0.00
2018-04-02T02:58:17.839Z,0.00
2018-04-02T02:59:18.013Z,0.00
2018-04-02T03:00:18.196Z,0.00
2018-04-02T03:01:18.376Z,0.00
2018-04-02T03:02:18.556Z,0.00
2018-04-02T03:03:18.737Z,0.00
2018-04-02T03:04:18.917Z,0.00
2018-04-02T03:05:19.097Z,0.00
2018-04-02T03:06:19.273Z,0.00
2018-04-02T03:07:19.452Z,0.00
2018-04-02T03:08:19.638Z,0.00
2018-04-02T03:09:19.814Z,0.00
2018-04-02T03:10:19.995Z,0.00
2018-04-02T03:11:20.169Z,0.00
2018-04-02T03:12:20.350Z,0.00
2018-04-02T03:13:20.525Z,0.00
2018-04-02T03:14:20.703Z,0.00
2018-04-02T03:15:20.879Z,0.00
2018-04-02T03:16:21.059Z,0.00
2018-04-02T03:17:21.230Z,0.00
2018-04-02T03:18:21.406Z,0.00
2018-04-02T03:19:21.583Z,0.00
2018-04-02T03:20:21.758Z,0.00
2018-04-02T03:21:21.929Z,0.00
2018-04-02T03:22:22.110Z,0.00
2018-04-02T03:23:22.292Z,0.00
2018-04-02T03:24:22.472Z,0.00
2018-04-02T03:25:22.647Z,0.00
2018-04-02T03:26:22.826Z,0.00
2018-04-02T03:27:23.013Z,0.00
2018-04-02T03:28:23.191Z,0.00
2018-04-02T03:29:23.369Z,0.00
2018-04-02T03:30:23.551Z,0.00
2018-04-02T03:31:23.731Z,0.00
2018-04-02T03:32:23.910Z,0.00
2018-04-02T03:33:24.091Z,0.00
2018-04-02T03:34:24.277Z,0.00
2018-04-02T03:35:24.450Z,0.00
2018-04-02T03:36:24.628Z,0.00
2018-04-02T03:37:24.802Z,0.00
2018-04-02T03:38:24.978Z,0.00
2018-04-02T03:39:25.159Z,0.00
2018-04-02T03:40:25.338Z,0.00
2018-04-02T03:41:25.514Z,0.00
2018-04-02T03:42:25.691Z,0.00
2018-04-02T03:43:25.874Z,0.00
2018-04-02T03:44:26.047Z,0.00
2018-04-02T03:45:26.224Z,0.00
2018-04-02T03:46:26.406Z,0.00
2018-04-02T03:47:26.591Z,0.00
2018-04-02T03:48:26.768Z,0.00
2018-04-02T03:49:26.945Z,0.00
2018-04-02T03:50:27.130Z,0.00
2018-04-02T03:51:27.311Z,0.00
2018-04-02T03:52:27.497Z,0.00
2018-04-02T03:53:27.678Z,0.00
2018-04-02T03:54:27.859Z,0.00
2018-04-02T03:55:28.036Z,0.00
2018-04-02T03:56:28.221Z,0.00
2018-04-02T03:57:28.400Z,0.00
2018-04-02T03:58:28.574Z,0.00
2018-04-02T03:59:28.755Z,0.00
2018-04-02T04:00:28.928Z,0.00
2018-04-02T04:01:29.109Z,0.00
2018-04-02T04:02:29.289Z,0.00
2018-04-02T04:03:29.470Z,0.00
2018-04-02T04:04:29.651Z,0.00
2018-04-02T04:05:29.830Z,0.00
2018-04-02T04:06:30.009Z,0.00
2018-04-02T04:07:30.189Z,0.00
2018-04-02T04:08:30.375Z,0.00
2018-04-02T04:09:30.554Z,0.00
2018-04-02T04:10:30.727Z,0.00
2018-04-02T04:11:30.907Z,0.00
2018-04-02T04:12:31.082Z,0.00
2018-04-02T04:13:31.889Z,0.00
2018-04-02T04:14:31.441Z,0.00
2018-04-02T04:15:31.622Z,0.00
2018-04-02T04:16:31.799Z,0.00
2018-04-02T04:17:31.978Z,0.00
2018-04-02T04:18:32.152Z,0.00
2018-04-02T04:19:32.337Z,0.00
2018-04-02T04:20:32.512Z,0.00
2018-04-02T04:21:32.691Z,0.00
2018-04-02T04:22:32.866Z,0.00
2018-04-02T04:23:33.038Z,0.00
2018-04-02T04:24:33.217Z,0.00
2018-04-02T04:25:33.396Z,0.00
2018-04-02T04:26:33.574Z,0.00
2018-04-02T04:27:33.757Z,0.00
2018-04-02T04:28:33.928Z,0.00
2018-04-02T04:29:34.104Z,0.00
2018-04-02T04:30:34.277Z,0.00
2018-04-02T04:31:34.476Z,0.00
2018-04-02T04:32:34.650Z,0.00
2018-04-02T04:33:34.830Z,0.00
2018-04-02T04:34:35.009Z,0.00
2018-04-02T04:35:35.194Z,0.00
2018-04-02T04:36:35.379Z,0.00
2018-04-02T04:37:35.558Z,0.00
2018-04-02T04:38:35.736Z,0.00
2018-04-02T04:39:35.911Z,0.00
2018-04-02T04:40:36.083Z,0.00
2018-04-02T04:41:36.256Z,0.00
2018-04-02T04:42:36.438Z,0.00
2018-04-02T04:43:36.634Z,0.00
2018-04-02T04:44:36.799Z,0.00
2018-04-02T04:45:36.972Z,0.00
2018-04-02T04:46:37.154Z,0.00
2018-04-02T04:47:37.334Z,5.63
2018-04-02T04:48:37.508Z,5.63
2018-04-02T04:49:37.696Z,5.63
2018-04-02T04:50:37.879Z,5.63
2018-04-02T04:51:38.111Z,5.63
2018-04-02T04:52:38.233Z,11.25
2018-04-02T04:53:38.410Z,11.25
2018-04-02T04:54:38.591Z,11.25
2018-04-02T04:55:38.765Z,11.25
2018-04-02T04:56:38.940Z,11.25
2018-04-02T04:57:39.116Z,11.25
2018-04-02T04:58:39.287Z,11.25
2018-04-02T04:59:39.460Z,16.88
2018-04-02T05:00:39.639Z,16.88
2018-04-02T05:01:39.816Z,16.88
2018-04-02T05:02:39.995Z,16.88
2018-04-02T05:03:40.171Z,22.50
2018-04-02T05:04:40.352Z,22.50
2018-04-02T05:05:40.528Z,22.50
2018-04-02T05:06:40.709Z,22.50
2018-04-02T05:07:40.887Z,28.13
2018-04-02T05:08:41.069Z,28.13
2018-04-02T05:09:41.251Z,33.75
2018-04-02T05:10:41.440Z,33.75
2018-04-02T05:11:41.624Z,39.38
2018-04-02T05:12:41.805Z,39.38
2018-04-02T05:13:41.977Z,39.38
2018-04-02T05:14:42.158Z,45.00
2018-04-02T05:15:42.338Z,45.00
2018-04-02T05:16:42.519Z,45.00
2018-04-02T05:17:42.757Z,45.00
2018-04-02T05:18:42.805Z,45.00
2018-04-02T05:19:42.979Z,45.00
2018-04-02T05:20:43.166Z,45.00
2018-04-02T05:21:43.343Z,45.00
2018-04-02T05:22:43.536Z,45.00
2018-04-02T05:23:43.706Z,50.63
2018-04-02T05:24:43.895Z,50.63
2018-04-02T05:25:44.072Z,56.25
2018-04-02T05:26:44.239Z,56.25
2018-04-02T05:27:44.415Z,50.63
2018-04-02T05:28:44.591Z,50.63
2018-04-02T05:29:44.765Z,50.63
2018-04-02T05:30:44.940Z,50.63
2018-04-02T05:31:45.117Z,50.63
2018-04-02T05:32:45.302Z,50.63
2018-04-02T05:33:45.474Z,56.25
2018-04-02T05:34:45.657Z,56.25
2018-04-02T05:35:45.840Z,61.88
2018-04-02T05:36:46.017Z,67.50
2018-04-02T05:37:46.195Z,73.13
2018-04-02T05:38:46.384Z,78.75
2018-04-02T05:39:46.602Z,78.75
2018-04-02T05:40:47.061Z,84.38
2018-04-02T05:41:46.871Z,84.38
2018-04-02T05:42:47.050Z,90.00
2018-04-02T05:43:47.221Z,84.38
2018-04-02T05:44:47.409Z,90.00
2018-04-02T05:45:47.595Z,95.63
2018-04-02T05:46:47.786Z,95.63
2018-04-02T05:47:47.965Z,95.63
2018-04-02T05:48:48.136Z,101.25
2018-04-02T05:49:48.313Z,101.25
2018-04-02T05:50:48.495Z,95.63
2018-04-02T05:51:48.671Z,95.63
2018-04-02T05:52:48.852Z,101.25
2018-04-02T05:53:49.022Z,101.25
2018-04-02T05:54:49.201Z,106.88
2018-04-02T05:55:49.380Z,106.88
2018-04-02T05:56:49.556Z,106.88
2018-04-02T05:57:49.730Z,123.75
2018-04-02T05:58:49.907Z,123.75
2018-04-02T05:59:50.090Z,129.38
2018-04-02T06:00:50.277Z,135.00
2018-04-02T06:01:50.454Z,140.63
2018-04-02T06:02:55.208Z,135.00
2018-04-02T06:03:50.791Z,135.00
2018-04-02T06:04:50.974Z,140.63
2018-04-02T06:05:51.149Z,151.88
2018-04-02T06:06:51.328Z,151.88
2018-04-02T06:07:51.514Z,151.88
2018-04-02T06:08:51.728Z,157.50
2018-04-02T06:09:51.884Z,157.50
2018-04-02T06:10:52.063Z,163.13
2018-04-02T06:11:52.236Z,168.75
2018-04-02T06:12:52.416Z,168.75
2018-04-02T06:13:52.601Z,168.75
2018-04-02T06:14:52.794Z,168.75
2018-04-02T06:15:52.967Z,163.13
2018-04-02T06:16:53.140Z,157.50
2018-04-02T06:17:53.316Z,168.75
2018-04-02T06:18:53.491Z,185.63
2018-04-02T06:19:53.670Z,202.50
2018-04-02T06:20:53.853Z,219.38
2018-04-02T06:21:54.026Z,236.25
2018-04-02T06:22:54.200Z,253.13
2018-04-02T06:23:54.377Z,270.00
2018-04-02T06:24:54.555Z,253.13
2018-04-02T06:25:54.739Z,270.00
2018-04-02T06:26:54.921Z,320.63
2018-04-02T06:27:55.094Z,376.88
2018-04-02T06:28:55.273Z,348.75
2018-04-02T06:29:55.447Z,371.25
2018-04-02T06:30:55.637Z,405.00
2018-04-02T06:31:55.803Z,388.13
2018-04-02T06:32:55.985Z,376.88
2018-04-02T06:33:56.191Z,421.88
2018-04-02T06:34:56.364Z,483.75
2018-04-02T06:35:56.540Z,810.00
2018-04-02T06:36:56.769Z,691.88
2018-04-02T06:37:56.925Z,517.50
2018-04-02T06:38:59.185Z,489.38
2018-04-02T06:39:59.430Z,466.88
2018-04-02T06:40:59.704Z,517.50
2018-04-02T06:42:02.443Z,545.63
2018-04-02T06:42:59.574Z,579.38
2018-04-02T06:43:57.871Z,635.63
2018-04-02T06:44:58.767Z,641.25
2018-04-02T06:45:59.510Z,708.75
2018-04-02T06:46:59.117Z,922.50
2018-04-02T06:47:59.944Z,585.00
2018-04-02T06:48:59.219Z,590.63
2018-04-02T06:49:58.956Z,573.75
2018-04-02T06:50:59.014Z,551.25
2018-04-02T06:51:59.691Z,568.13
2018-04-02T06:52:59.386Z,731.25
2018-04-02T06:53:59.893Z,770.63
2018-04-02T06:54:59.825Z,1299.38
2018-04-02T06:56:03.712Z,630.00
2018-04-02T06:57:00.054Z,630.00
2018-04-02T06:58:00.231Z,675.00
2018-04-02T06:59:00.410Z,658.13
2018-04-02T07:00:00.602Z,748.13
2018-04-02T07:01:00.773Z,939.38
2018-04-02T07:02:00.967Z,877.50
2018-04-02T07:03:01.154Z,860.63
2018-04-02T07:04:01.427Z,838.13
2018-04-02T07:05:01.451Z,1361.25
2018-04-02T07:06:01.630Z,956.25
2018-04-02T07:07:01.810Z,1215.00
2018-04-02T07:08:01.989Z,1479.38
2018-04-02T07:09:02.182Z,2182.50
2018-04-02T07:10:02.376Z,1620.00
2018-04-02T07:11:02.571Z,1524.38
2018-04-02T07:12:02.836Z,1496.25
2018-04-02T07:13:02.910Z,1372.50
2018-04-02T07:14:03.114Z,1575.00
2018-04-02T07:15:03.334Z,1350.00
2018-04-02T07:16:03.524Z,1485.00
2018-04-02T07:17:03.732Z,1237.50
2018-04-02T07:18:03.998Z,1203.75
2018-04-02T07:19:04.032Z,1040.63
2018-04-02T07:20:04.215Z,1338.75
2018-04-02T07:21:04.536Z,759.38
2018-04-02T07:22:04.593Z,697.50
2018-04-02T07:23:04.811Z,708.75
2018-04-02T07:24:04.958Z,753.75
2018-04-02T07:25:05.159Z,658.13
2018-04-02T07:26:05.331Z,613.13
2018-04-02T07:27:05.755Z,641.25
2018-04-02T07:28:05.660Z,618.75
2018-04-02T07:29:05.843Z,601.88
2018-04-02T07:30:06.041Z,686.25
2018-04-02T07:31:06.235Z,624.38
2018-04-02T07:32:06.403Z,883.13
2018-04-02T07:33:07.415Z,714.38
2018-04-02T07:34:06.769Z,720.00
2018-04-02T07:35:06.948Z,607.50
2018-04-02T07:36:07.169Z,585.00
2018-04-02T07:37:07.231Z,607.50
2018-04-02T07:38:07.407Z,663.75
2018-04-02T07:39:07.684Z,1108.13
2018-04-02T07:40:08.213Z,810.00
2018-04-02T07:41:08.016Z,866.25
2018-04-02T07:42:08.085Z,1035.00
2018-04-02T07:43:08.298Z,1597.50
2018-04-02T07:44:08.542Z,2953.13
2018-04-02T07:45:08.630Z,2711.25
2018-04-02T07:46:08.802Z,3594.38
2018-04-02T07:47:09.008Z,3549.38
2018-04-02T07:48:09.178Z,3622.50
2018-04-02T07:49:09.361Z,3611.25
2018-04-02T07:50:09.551Z,3571.88
2018-04-02T07:51:09.750Z,3600.00
2018-04-02T07:52:09.943Z,3600.00
2018-04-02T07:53:10.132Z,3436.88
2018-04-02T07:54:10.348Z,3532.50
2018-04-02T07:55:10.528Z,3628.13
2018-04-02T07:56:10.766Z,3330.00
2018-04-02T07:57:11.164Z,3841.88
2018-04-02T07:58:11.689Z,3931.88
2018-04-02T07:59:11.227Z,4055.63
2018-04-02T08:00:11.428Z,4134.38
2018-04-02T08:01:11.611Z,3155.63
2018-04-02T08:02:11.798Z,3009.38
2018-04-02T08:03:13.022Z,2587.50
2018-04-02T08:04:12.211Z,3082.50
2018-04-02T08:05:12.406Z,2688.75
2018-04-02T08:06:12.664Z,2790.00
2018-04-02T08:07:12.720Z,2581.88
2018-04-02T08:08:12.911Z,2908.13
2018-04-02T08:09:13.235Z,2188.13
2018-04-02T08:10:13.410Z,1912.50
2018-04-02T08:11:13.469Z,1963.13
2018-04-02T08:12:13.655Z,2160.00
2018-04-02T08:13:13.842Z,2306.25
2018-04-02T08:14:14.918Z,2255.63
2018-04-02T08:15:14.493Z,2469.38
2018-04-02T08:16:14.352Z,3262.50
2018-04-02T08:17:15.108Z,3189.38
2018-04-02T08:18:15.256Z,2986.88
2018-04-02T08:19:15.614Z,2711.25
2018-04-02T08:20:16.291Z,2863.13
2018-04-02T08:21:15.294Z,2761.88
2018-04-02T08:22:16.925Z,2992.50
2018-04-02T08:23:15.568Z,3060.00
2018-04-02T08:24:15.755Z,2694.38
2018-04-02T08:25:16.018Z,3009.38
2018-04-02T08:26:16.104Z,3285.00
2018-04-02T08:27:16.461Z,2587.50
2018-04-02T08:28:16.856Z,2829.38
2018-04-02T08:29:16.989Z,2790.00
2018-04-02T08:30:17.145Z,2688.75
2018-04-02T08:31:16.993Z,2880.00
2018-04-02T08:32:17.194Z,2272.50
2018-04-02T08:33:17.381Z,2070.00
2018-04-02T08:34:17.572Z,1867.50
2018-04-02T08:35:17.752Z,1867.50
2018-04-02T08:36:17.943Z,1946.25
2018-04-02T08:37:18.147Z,2317.50
2018-04-02T08:38:18.358Z,2311.88
2018-04-02T08:39:18.561Z,2041.88
2018-04-02T08:40:18.802Z,1890.00
2018-04-02T08:41:19.156Z,1957.50
2018-04-02T08:42:19.104Z,1923.75
2018-04-02T08:43:19.289Z,1687.50
2018-04-02T08:44:19.724Z,1603.13
2018-04-02T08:45:19.944Z,1485.00
2018-04-02T08:46:19.880Z,1440.00
2018-04-02T08:47:20.671Z,1451.25
2018-04-02T08:48:20.458Z,1473.75
2018-04-02T08:49:20.843Z,1614.38
2018-04-02T08:50:20.534Z,1569.38
2018-04-02T08:51:20.758Z,1586.25
2018-04-02T08:52:20.953Z,1608.75
2018-04-02T08:53:21.144Z,1473.75
2018-04-02T08:54:21.341Z,1400.63
2018-04-02T08:55:22.143Z,1456.88
2018-04-02T08:56:21.962Z,1659.38
2018-04-02T08:57:23.197Z,1468.13
2018-04-02T08:58:22.242Z,1451.25
2018-04-02T08:59:22.554Z,1378.13
2018-04-02T09:00:23.441Z,1254.38
2018-04-02T09:01:22.575Z,1237.50
2018-04-02T09:02:22.762Z,1231.88
2018-04-02T09:03:23.455Z,1203.75
2018-04-02T09:04:24.087Z,1096.88
2018-04-02T09:05:24.921Z,1080.00
2018-04-02T09:06:24.326Z,1046.25
2018-04-02T09:07:24.686Z,1158.75
2018-04-02T09:08:24.528Z,1096.88
2018-04-02T09:09:25.962Z,1063.13
2018-04-02T09:10:25.355Z,1057.50
2018-04-02T09:11:25.009Z,1243.13
2018-04-02T09:12:24.756Z,1440.00
2018-04-02T09:13:26.417Z,1681.88
2018-04-02T09:14:25.938Z,2115.00
2018-04-02T09:15:26.742Z,1996.88
2018-04-02T09:16:26.378Z,2030.63
2018-04-02T09:17:26.672Z,967.50
2018-04-02T09:18:26.040Z,793.13
2018-04-02T09:19:26.732Z,1051.88
2018-04-02T09:20:27.154Z,3335.63
2018-04-02T09:21:25.753Z,4050.00
2018-04-02T09:22:26.003Z,4241.25
2018-04-02T09:23:26.216Z,4162.50
2018-04-02T09:24:26.344Z,810.00
2018-04-02T09:25:26.751Z,3993.75
2018-04-02T09:26:27.603Z,4185.00
2018-04-02T09:27:27.987Z,4140.00
2018-04-02T09:28:27.946Z,4140.00
2018-04-02T09:29:27.979Z,4151.25
2018-04-02T09:30:29.097Z,849.38
2018-04-02T09:31:28.371Z,928.13
2018-04-02T09:32:29.040Z,4033.13
2018-04-02T09:33:29.725Z,1299.38
2018-04-02T09:34:29.167Z,3965.63
2018-04-02T09:35:30.928Z,3836.25
2018-04-02T09:36:28.774Z,2610.00
2018-04-02T09:37:28.684Z,3931.88
2018-04-02T09:38:29.015Z,3813.75
2018-04-02T09:39:29.200Z,2711.25
2018-04-02T09:40:29.357Z,2801.25
2018-04-02T09:41:29.428Z,3785.63
2018-04-02T09:42:29.496Z,3690.00
2018-04-02T09:43:29.890Z,894.38
2018-04-02T09:44:29.738Z,624.38
2018-04-02T09:45:29.940Z,573.75
2018-04-02T09:46:30.123Z,568.13
2018-04-02T09:47:30.320Z,579.38
2018-04-02T09:48:30.507Z,618.75
2018-04-02T09:49:30.975Z,708.75
2018-04-02T09:50:30.985Z,3549.38
2018-04-02T09:51:30.997Z,3892.50
2018-04-02T09:52:31.211Z,1670.63
2018-04-02T09:53:31.398Z,2908.13
2018-04-02T09:54:31.575Z,3920.63
2018-04-02T09:55:31.768Z,4078.13
2018-04-02T09:56:32.816Z,3150.00
2018-04-02T09:57:32.070Z,1057.50
2018-04-02T09:58:32.269Z,883.13
2018-04-02T09:59:32.528Z,1035.00
2018-04-02T10:00:32.669Z,3555.00
2018-04-02T10:01:32.856Z,3639.38
2018-04-02T10:02:33.042Z,1181.25
2018-04-02T10:03:33.259Z,3476.25
2018-04-02T10:04:33.447Z,3268.13
2018-04-02T10:05:33.624Z,4117.50
2018-04-02T10:06:33.829Z,1755.00
2018-04-02T10:07:35.879Z,776.25
2018-04-02T10:08:35.715Z,630.00
2018-04-02T10:09:36.941Z,551.25
2018-04-02T10:10:34.663Z,466.88
2018-04-02T10:11:35.596Z,461.25
2018-04-02T10:12:35.782Z,416.25
2018-04-02T10:13:38.550Z,416.25
2018-04-02T10:14:35.225Z,388.13
2018-04-02T10:15:35.483Z,360.00
2018-04-02T10:16:35.771Z,343.13
2018-04-02T10:17:35.999Z,326.25
2018-04-02T10:18:35.860Z,354.38
2018-04-02T10:19:36.253Z,393.75
2018-04-02T10:20:36.232Z,573.75
2018-04-02T10:21:36.588Z,641.25
2018-04-02T10:22:36.566Z,967.50
2018-04-02T10:23:36.790Z,1895.63
2018-04-02T10:24:36.865Z,2193.75
2018-04-02T10:25:39.162Z,3341.25
2018-04-02T10:26:38.666Z,3245.63
2018-04-02T10:27:39.155Z,3543.75
2018-04-02T10:28:39.420Z,2846.25
2018-04-02T10:29:39.349Z,2497.50
2018-04-02T10:30:39.681Z,2790.00
2018-04-02T10:31:39.448Z,2480.63
2018-04-02T10:32:39.735Z,945.00
2018-04-02T10:33:40.217Z,871.88
2018-04-02T10:34:41.648Z,838.13
2018-04-02T10:35:39.155Z,1586.25
2018-04-02T10:36:39.309Z,1901.25
2018-04-02T10:37:39.408Z,2823.75
2018-04-02T10:38:39.656Z,3020.63
2018-04-02T10:39:39.727Z,2311.88
2018-04-02T10:40:39.971Z,736.88
2018-04-02T10:41:40.258Z,675.00
2018-04-02T10:42:40.367Z,708.75
2018-04-02T10:43:42.046Z,765.00
2018-04-02T10:44:40.664Z,832.50
2018-04-02T10:45:40.618Z,860.63
2018-04-02T10:46:40.797Z,855.00
2018-04-02T10:47:40.984Z,961.88
2018-04-02T10:48:41.216Z,961.88
2018-04-02T10:49:41.386Z,1085.63
2018-04-02T10:50:41.542Z,3870.00
2018-04-02T10:51:41.731Z,3723.75
2018-04-02T10:52:41.925Z,3791.25
2018-04-02T10:53:42.103Z,3746.25
2018-04-02T10:54:42.512Z,860.63
2018-04-02T10:55:42.471Z,765.00
2018-04-02T10:56:42.658Z,725.63
2018-04-02T10:57:42.843Z,691.88
2018-04-02T10:58:43.030Z,714.38
2018-04-02T10:59:43.246Z,770.63
2018-04-02T11:00:43.393Z,798.75
2018-04-02T11:01:43.741Z,855.00
2018-04-02T11:02:43.716Z,838.13
2018-04-02T11:03:43.869Z,821.25
2018-04-02T11:04:44.056Z,838.13
2018-04-02T11:05:44.251Z,849.38
2018-04-02T11:06:44.448Z,838.13
2018-04-02T11:07:44.650Z,855.00
2018-04-02T11:08:44.852Z,900.00
2018-04-02T11:09:45.042Z,1901.25
2018-04-02T11:10:45.220Z,860.63
2018-04-02T11:11:45.409Z,798.75
2018-04-02T11:12:45.594Z,798.75
2018-04-02T11:13:45.781Z,798.75
2018-04-02T11:14:45.964Z,810.00
2018-04-02T11:15:46.154Z,770.63
2018-04-02T11:16:46.344Z,714.38
2018-04-02T11:17:46.564Z,759.38
2018-04-02T11:18:46.749Z,708.75
2018-04-02T11:19:46.949Z,703.13
2018-04-02T11:20:47.121Z,916.88
2018-04-02T11:21:47.302Z,736.88
2018-04-02T11:22:47.496Z,798.75
2018-04-02T11:23:47.703Z,978.75
2018-04-02T11:24:47.868Z,826.88
2018-04-02T11:25:48.037Z,798.75
2018-04-02T11:26:48.226Z,815.63
2018-04-02T11:27:48.407Z,748.13
2018-04-02T11:28:48.596Z,720.00
2018-04-02T11:29:48.777Z,714.38
2018-04-02T11:30:48.968Z,798.75
2018-04-02T11:31:49.193Z,1080.00
2018-04-02T11:32:49.262Z,1029.38
2018-04-02T11:33:49.449Z,871.88
2018-04-02T11:34:49.650Z,821.25
2018-04-02T11:35:49.853Z,793.13
2018-04-02T11:36:50.006Z,939.38
2018-04-02T11:37:50.191Z,815.63
2018-04-02T11:38:50.378Z,815.63
2018-04-02T11:39:50.557Z,742.50
2018-04-02T11:40:50.739Z,765.00
2018-04-02T11:41:50.917Z,905.63
2018-04-02T11:42:51.118Z,894.38
2018-04-02T11:43:51.290Z,888.75
2018-04-02T11:44:51.489Z,843.75
2018-04-02T11:45:51.667Z,804.38
2018-04-02T11:46:51.852Z,770.63
2018-04-02T11:47:52.044Z,787.50
2018-04-02T11:48:52.239Z,793.13
2018-04-02T11:49:52.422Z,798.75
2018-04-02T11:50:52.609Z,776.25
2018-04-02T11:51:52.791Z,748.13
2018-04-02T11:52:52.982Z,804.38
2018-04-02T11:53:53.247Z,770.63
2018-04-02T11:54:53.306Z,810.00
2018-04-02T11:55:53.480Z,877.50
2018-04-02T11:56:53.790Z,866.25
2018-04-02T11:57:53.850Z,888.75
2018-04-02T11:58:54.047Z,849.38
2018-04-02T11:59:54.266Z,826.88
2018-04-02T12:00:54.358Z,832.50
2018-04-02T12:01:54.547Z,810.00
2018-04-02T12:02:54.748Z,793.13
2018-04-02T12:03:54.966Z,810.00
2018-04-02T12:04:55.171Z,810.00
2018-04-02T12:05:55.311Z,720.00
2018-04-02T12:06:55.496Z,736.88
2018-04-02T12:07:55.683Z,765.00
2018-04-02T12:08:55.864Z,770.63
2018-04-02T12:09:56.053Z,748.13
2018-04-02T12:10:56.250Z,725.63
2018-04-02T12:11:56.435Z,691.88
2018-04-02T12:12:56.787Z,703.13
2018-04-02T12:13:56.856Z,736.88
2018-04-02T12:14:57.038Z,798.75
2018-04-02T12:15:57.216Z,815.63
2018-04-02T12:16:57.417Z,860.63
2018-04-02T12:17:57.591Z,866.25
2018-04-02T12:18:57.777Z,838.13
2018-04-02T12:19:57.965Z,855.00
2018-04-02T12:20:58.188Z,849.38
2018-04-02T12:21:58.327Z,810.00
2018-04-02T12:22:58.510Z,793.13
2018-04-02T12:23:58.694Z,843.75
2018-04-02T12:24:58.880Z,849.38
2018-04-02T12:25:59.064Z,843.75
2018-04-02T12:26:59.251Z,838.13
2018-04-02T12:27:59.428Z,866.25
2018-04-02T12:28:59.616Z,883.13
2018-04-02T12:29:59.796Z,849.38
2018-04-02T12:30:59.979Z,843.75
2018-04-02T12:32:00.164Z,855.00
2018-04-02T12:33:00.348Z,821.25
2018-04-02T12:34:00.534Z,765.00
2018-04-02T12:35:00.769Z,759.38
2018-04-02T12:36:00.919Z,736.88
2018-04-02T12:37:01.104Z,708.75
2018-04-02T12:38:01.293Z,697.50
2018-04-02T12:39:01.475Z,675.00
2018-04-02T12:40:01.708Z,630.00
2018-04-02T12:41:01.883Z,596.25
2018-04-02T12:42:02.068Z,573.75
2018-04-02T12:43:02.259Z,551.25
2018-04-02T12:44:02.443Z,523.13
2018-04-02T12:45:02.629Z,495.00
2018-04-02T12:46:02.814Z,472.50